Time;durP1;ratioP1;P1;durP2;ratioP2;P2;SDS_P1;SDS_P2;PMS_P1;PMS_P2;Temp;Humidity;BMP_temperature;BMP_pressure;BME280_temperature;BME280_humidity;BME280_pressure;Samples;Min_cycle;Max_cycle;Signal;HPM_P1;HPM_P2
2022/05/27 00:02:00;;;;;;;3.92;2.20;;;;;;;;;;5079116;28;20052;-66
2022/05/27 00:04:28;;;;;;;7.68;2.03;;;;;;;;;;5094627;28;20078;-66
2022/05/27 00:06:56;;;;;;;3.05;1.77;;;;;;;;;;5094793;28;20044;-66
2022/05/27 00:09:25;;;;;;;4.35;2.38;;;;;;;;;;5094603;28;20050;-66
2022/05/27 00:11:52;;;;;;;4.25;2.38;;;;;;;;;;5094625;28;20051;-67
2022/05/27 00:14:20;;;;;;;6.00;2.10;;;;;;;;;;5094662;28;20044;-67
2022/05/27 00:16:47;;;;;;;6.30;2.50;;;;;;;;;;5094468;28;20040;-67
2022/05/27 00:19:16;;;;;;;1.95;1.70;;;;;;;;;;5094353;28;20036;-67
2022/05/27 00:21:44;;;;;;;3.28;2.25;;;;;;;;;;5094720;28;20474;-67
2022/05/27 00:24:11;;;;;;;3.15;2.17;;;;;;;;;;5094392;28;20047;-67
2022/05/27 00:26:39;;;;;;;3.13;2.30;;;;;;;;;;5094445;28;20485;-67
2022/05/27 00:29:06;;;;;;;2.67;2.05;;;;;;;;;;5094257;28;20044;-67
2022/05/27 00:31:33;;;;;;;3.67;2.35;;;;;;;;;;5094402;28;20040;-67
2022/05/27 00:34:01;;;;;;;5.93;2.50;;;;;;;;;;5093407;28;20422;-67
2022/05/27 00:36:28;;;;;;;4.20;2.20;;;;;;;;;;5094052;28;20040;-67
2022/05/27 00:38:57;;;;;;;4.80;2.50;;;;;;;;;;5094121;28;20036;-67
2022/05/27 00:41:24;;;;;;;4.97;2.60;;;;;;;;;;5093994;28;20040;-66
2022/05/27 00:43:52;;;;;;;4.63;2.72;;;;;;;;;;5093858;28;20625;-67
2022/05/27 00:46:22;;;;;;;6.40;2.40;;;;;;;;;;5093742;28;20050;-67
2022/05/27 00:48:51;;;;;;;6.10;2.63;;;;;;;;;;5093838;28;20036;-67
2022/05/27 00:51:21;;;;;;;6.57;2.90;;;;;;;;;;5093705;28;20047;-68
2022/05/27 00:54:00;;;;;;;6.25;2.50;;;;;;;;;;5093720;28;20040;-68
2022/05/27 00:56:31;;;;;;;6.95;2.90;;;;;;;;;;5093478;28;20075;-66
2022/05/27 00:59:17;;;;;;;4.38;2.70;;;;;;;;;;5093730;28;20053;-66
2022/05/27 01:01:45;;;;;;;4.85;2.90;;;;;;;;;;5093644;28;20086;-65
2022/05/27 01:04:12;;;;;;;5.32;2.60;;;;;;;;;;5093366;28;20094;-67
2022/05/27 01:06:40;;;;;;;4.97;2.92;;;;;;;;;;5093571;28;20044;-68
2022/05/27 01:09:07;;;;;;;6.05;3.03;;;;;;;;;;5093605;28;20044;-68
2022/05/27 01:11:40;;;;;;;4.88;3.20;;;;;;;;;;5093576;28;20051;-67
2022/05/27 01:14:43;;;;;;;5.85;3.30;;;;;;;;;;5093787;28;20048;-68
2022/05/27 01:17:25;;;;;;;5.55;3.20;;;;;;;;;;4991754;28;20066;-68
2022/05/27 01:20:21;;;;;;;4.72;3.08;;;;;;;;;;5084031;28;20135;-68
2022/05/27 01:23:07;;;;;;;4.82;2.88;;;;;;;;;;5093307;28;20044;-67
2022/05/27 01:25:40;;;;;;;4.90;2.88;;;;;;;;;;5075533;28;20036;-67
2022/05/27 01:28:08;;;;;;;7.53;3.03;;;;;;;;;;5093311;28;20065;-67
2022/05/27 01:30:55;;;;;;;5.15;3.05;;;;;;;;;;5093096;28;20069;-67
2022/05/27 01:33:23;;;;;;;7.85;3.20;;;;;;;;;;5042602;28;20113;-66
2022/05/27 01:35:51;;;;;;;8.50;3.33;;;;;;;;;;5074818;28;20044;-65
2022/05/27 01:38:45;;;;;;;7.07;3.22;;;;;;;;;;5092913;28;20520;-68
2022/05/27 01:41:24;;;;;;;7.80;3.38;;;;;;;;;;5089299;28;20604;-68
2022/05/27 01:43:59;;;;;;;5.93;3.05;;;;;;;;;;5092923;28;20040;-68
2022/05/27 01:46:31;;;;;;;4.72;3.20;;;;;;;;;;5092197;28;20036;-66
2022/05/27 01:49:08;;;;;;;5.25;3.53;;;;;;;;;;5092834;28;20042;-66
2022/05/27 01:51:56;;;;;;;5.35;2.70;;;;;;;;;;5092911;28;20040;-66
2022/05/27 01:54:30;;;;;;;5.15;2.95;;;;;;;;;;5092713;28;20048;-65
2022/05/27 01:57:04;;;;;;;7.70;3.30;;;;;;;;;;5092796;28;20190;-65
2022/05/27 01:59:35;;;;;;;5.32;3.70;;;;;;;;;;5092506;28;20047;-65
2022/05/27 02:02:11;;;;;;;5.25;3.65;;;;;;;;;;5092816;28;20040;-65
2022/05/27 02:04:42;;;;;;;5.18;3.60;;;;;;;;;;5092771;28;20682;-65
2022/05/27 02:07:14;;;;;;;6.72;3.35;;;;;;;;;;5092785;28;20067;-65
2022/05/27 02:09:45;;;;;;;8.18;3.30;;;;;;;;;;5092748;28;20044;-66
2022/05/27 02:12:21;;;;;;;5.22;3.72;;;;;;;;;;5092504;28;20065;-66
2022/05/27 02:14:51;;;;;;;6.07;3.90;;;;;;;;;;5092566;28;20123;-66
2022/05/27 02:17:22;;;;;;;7.90;4.30;;;;;;;;;;5092570;28;20040;-66
2022/05/27 02:19:57;;;;;;;8.23;5.00;;;;;;;;;;5092744;28;20394;-66
2022/05/27 02:22:36;;;;;;;4.60;3.55;;;;;;;;;;5092418;28;20041;-68
2022/05/27 02:25:11;;;;;;;6.40;3.30;;;;;;;;;;5092467;28;20048;-67
2022/05/27 02:27:42;;;;;;;4.70;3.30;;;;;;;;;;5092451;28;20044;-67
2022/05/27 02:30:12;;;;;;;5.18;3.10;;;;;;;;;;5092452;28;20067;-68
2022/05/27 02:32:42;;;;;;;7.88;3.33;;;;;;;;;;5092436;28;20060;-67
2022/05/27 02:35:13;;;;;;;4.82;3.13;;;;;;;;;;5092784;28;20048;-67
2022/05/27 02:37:42;;;;;;;6.15;3.33;;;;;;;;;;5092319;28;20050;-68
2022/05/27 02:40:16;;;;;;;8.07;3.85;;;;;;;;;;5092421;28;20028;-67
2022/05/27 02:42:47;;;;;;;7.43;3.45;;;;;;;;;;5092283;28;20110;-67
2022/05/27 02:45:26;;;;;;;5.35;3.90;;;;;;;;;;5092324;28;20051;-68
2022/05/27 02:48:04;;;;;;;6.97;4.40;;;;;;;;;;5092351;28;20044;-68
2022/05/27 02:50:31;;;;;;;6.15;3.85;;;;;;;;;;5092144;28;20038;-68
2022/05/27 02:53:05;;;;;;;7.45;3.97;;;;;;;;;;5092220;28;20389;-68
2022/05/27 02:55:41;;;;;;;9.05;4.18;;;;;;;;;;5092192;28;20134;-67
2022/05/27 02:58:09;;;;;;;7.57;3.63;;;;;;;;;;5095490;28;20396;-68
2022/05/27 03:00:39;;;;;;;6.70;4.50;;;;;;;;;;5096094;28;20044;-67
2022/05/27 03:03:07;;;;;;;7.90;5.38;;;;;;;;;;5095909;28;20058;-68
2022/05/27 03:05:52;;;;;;;7.22;4.93;;;;;;;;;;5095709;28;20039;-67
2022/05/27 03:08:25;;;;;;;6.75;4.32;;;;;;;;;;5095889;28;20539;-65
2022/05/27 03:10:56;;;;;;;11.40;4.55;;;;;;;;;;5095804;28;20044;-65
2022/05/27 03:13:44;;;;;;;7.95;4.43;;;;;;;;;;5095534;28;20456;-66
2022/05/27 03:16:15;;;;;;;7.07;4.18;;;;;;;;;;5095412;28;20040;-66
2022/05/27 03:18:55;;;;;;;8.65;4.85;;;;;;;;;;5095468;28;20119;-66
2022/05/27 03:21:25;;;;;;;9.20;4.30;;;;;;;;;;5095681;28;20120;-66
2022/05/27 03:24:02;;;;;;;7.13;4.15;;;;;;;;;;5095354;28;20461;-66
2022/05/27 03:26:32;;;;;;;6.80;5.35;;;;;;;;;;5095415;28;20089;-66
2022/05/27 03:29:18;;;;;;;7.57;4.65;;;;;;;;;;5095324;28;20044;-68
2022/05/27 03:31:55;;;;;;;7.00;5.32;;;;;;;;;;5095361;28;20036;-68
2022/05/27 03:34:32;;;;;;;10.90;5.90;;;;;;;;;;5095231;28;20075;-68
2022/05/27 03:37:15;;;;;;;8.77;5.15;;;;;;;;;;5095500;28;20484;-68
2022/05/27 03:39:45;;;;;;;11.05;6.43;;;;;;;;;;5095381;28;20044;-69
2022/05/27 03:42:13;;;;;;;10.23;7.22;;;;;;;;;;5094914;28;20550;-69
2022/05/27 03:44:49;;;;;;;12.40;7.80;;;;;;;;;;5093431;28;20039;-69
2022/05/27 03:47:17;;;;;;;10.98;7.00;;;;;;;;;;5093699;28;20044;-67
2022/05/27 03:49:45;;;;;;;11.63;7.43;;;;;;;;;;5082651;28;20045;-66
2022/05/27 03:52:18;;;;;;;11.93;8.15;;;;;;;;;;5074729;28;20124;-65
2022/05/27 03:54:46;;;;;;;10.73;7.68;;;;;;;;;;5076356;28;20409;-66
2022/05/27 03:57:13;;;;;;;9.57;6.70;;;;;;;;;;5074003;28;20059;-68
2022/05/27 03:59:40;;;;;;;10.80;5.80;;;;;;;;;;5074867;28;20106;-69
2022/05/27 04:02:09;;;;;;;10.20;7.70;;;;;;;;;;5074645;28;20844;-69
2022/05/27 04:04:37;;;;;;;12.32;7.35;;;;;;;;;;5074422;28;20056;-68
2022/05/27 04:07:05;;;;;;;11.82;7.15;;;;;;;;;;5057057;28;20108;-68
2022/05/27 04:09:33;;;;;;;7.15;5.68;;;;;;;;;;5073641;28;20055;-68
2022/05/27 04:12:01;;;;;;;16.52;6.82;;;;;;;;;;5074758;28;20044;-66
2022/05/27 04:14:28;;;;;;;9.18;6.47;;;;;;;;;;5074197;28;20041;-69
2022/05/27 04:17:27;;;;;;;15.20;6.68;;;;;;;;;;5074054;28;20102;-66
2022/05/27 04:19:43;;;;;;;21.95;15.50;;;;;;;;;;5074109;28;20116;-67
2022/05/27 04:22:11;;;;;;;28.02;17.65;;;;;;;;;;5074096;28;20044;-67
2022/05/27 04:24:39;;;;;;;21.70;9.43;;;;;;;;;;5073867;28;20136;-67
2022/05/27 04:27:11;;;;;;;15.00;9.05;;;;;;;;;;5073770;28;20390;-68
2022/05/27 04:29:40;;;;;;;37.28;23.42;;;;;;;;;;5074297;28;20409;-68
2022/05/27 04:32:07;;;;;;;47.03;32.80;;;;;;;;;;5073375;28;20044;-68
2022/05/27 04:34:35;;;;;;;31.05;20.85;;;;;;;;;;5073550;28;20426;-68
2022/05/27 04:37:03;;;;;;;26.20;16.40;;;;;;;;;;5072121;28;20039;-68
2022/05/27 04:39:30;;;;;;;33.65;21.73;;;;;;;;;;5072599;28;20448;-68
2022/05/27 04:41:58;;;;;;;19.90;15.20;;;;;;;;;;5073095;28;20052;-68
2022/05/27 04:44:26;;;;;;;15.20;10.02;;;;;;;;;;5073323;28;20083;-68
2022/05/27 04:46:53;;;;;;;28.33;18.98;;;;;;;;;;5072793;28;20037;-68
2022/05/27 04:52:07;;;;;;;41.92;27.00;;;;;;;;;;5073581;28;20045;-68
2022/05/27 04:54:35;;;;;;;14.00;8.55;;;;;;;;;;5073384;28;20044;-68
2022/05/27 04:57:02;;;;;;;12.88;8.00;;;;;;;;;;5073563;28;20041;-68
2022/05/27 04:59:31;;;;;;;40.38;24.92;;;;;;;;;;5073472;28;20044;-68
2022/05/27 05:01:58;;;;;;;49.65;35.67;;;;;;;;;;5073435;28;20101;-68
2022/05/27 05:04:26;;;;;;;17.88;13.07;;;;;;;;;;5081117;28;20072;-68
2022/05/27 05:06:54;;;;;;;22.02;16.58;;;;;;;;;;5076825;28;20035;-68
2022/05/27 05:09:21;;;;;;;26.85;20.92;;;;;;;;;;5082700;28;20064;-68
2022/05/27 05:11:48;;;;;;;9.98;8.55;;;;;;;;;;5092827;28;20043;-67
2022/05/27 05:14:16;;;;;;;15.88;11.32;;;;;;;;;;5093478;28;20040;-67
2022/05/27 05:16:43;;;;;;;15.05;11.25;;;;;;;;;;5093743;28;20047;-67
2022/05/27 05:19:11;;;;;;;14.23;11.43;;;;;;;;;;5093484;28;20485;-67
2022/05/27 05:21:38;;;;;;;20.92;15.38;;;;;;;;;;5093262;28;20065;-67
2022/05/27 05:24:06;;;;;;;14.32;10.65;;;;;;;;;;5086952;28;20037;-68
2022/05/27 05:26:33;;;;;;;18.38;12.98;;;;;;;;;;5082309;28;20063;-67
2022/05/27 05:29:01;;;;;;;10.18;9.05;;;;;;;;;;5080906;28;20064;-67
2022/05/27 05:31:28;;;;;;;14.48;10.25;;;;;;;;;;5073053;28;20418;-67
2022/05/27 05:33:59;;;;;;;11.80;9.02;;;;;;;;;;5076942;28;20483;-67
2022/05/27 05:36:29;;;;;;;15.75;11.10;;;;;;;;;;5081010;28;20128;-67
2022/05/27 05:38:57;;;;;;;13.50;10.10;;;;;;;;;;5073056;28;20040;-67
2022/05/27 05:41:28;;;;;;;13.25;11.48;;;;;;;;;;5072796;28;20106;-66
2022/05/27 05:43:56;;;;;;;15.32;11.23;;;;;;;;;;5072710;28;20052;-71
2022/05/27 05:46:24;;;;;;;13.55;10.25;;;;;;;;;;5075218;28;20512;-72
2022/05/27 05:48:54;;;;;;;16.10;10.65;;;;;;;;;;5075125;28;20054;-72
2022/05/27 05:51:21;;;;;;;10.85;9.27;;;;;;;;;;5072248;28;20482;-69
2022/05/27 05:53:49;;;;;;;12.55;10.88;;;;;;;;;;5072669;28;20051;-67
2022/05/27 05:56:16;;;;;;;14.65;9.85;;;;;;;;;;5072530;28;20052;-68
2022/05/27 05:58:44;;;;;;;11.32;8.75;;;;;;;;;;5072539;28;20060;-68
2022/05/27 06:01:11;;;;;;;14.10;9.63;;;;;;;;;;5072785;28;20399;-71
2022/05/27 06:03:39;;;;;;;12.68;10.00;;;;;;;;;;5072424;28;20094;-72
2022/05/27 06:06:06;;;;;;;11.88;8.85;;;;;;;;;;5072505;28;20040;-72
2022/05/27 06:08:34;;;;;;;10.77;9.68;;;;;;;;;;5072540;28;20049;-73
2022/05/27 06:11:01;;;;;;;12.02;10.23;;;;;;;;;;5072205;28;20037;-72
2022/05/27 06:13:29;;;;;;;10.65;9.00;;;;;;;;;;5072492;28;20071;-73
2022/05/27 06:15:56;;;;;;;13.10;9.68;;;;;;;;;;5072395;28;20040;-71
2022/05/27 06:18:24;;;;;;;15.82;12.63;;;;;;;;;;5072401;28;20069;-73
2022/05/27 06:20:51;;;;;;;18.10;14.77;;;;;;;;;;5072451;28;20068;-76
2022/05/27 06:23:19;;;;;;;13.05;11.75;;;;;;;;;;5072092;28;20049;-70
2022/05/27 06:25:46;;;;;;;13.05;8.15;;;;;;;;;;5072298;28;20048;-64
2022/05/27 06:36:35;;;;;;;8.43;6.95;;;;;;;;;;5077033;28;20060;-72
2022/05/27 06:39:04;;;;;;;10.48;7.82;;;;;;;;;;5076865;28;20044;-84
2022/05/27 06:41:31;;;;;;;11.50;7.45;;;;;;;;;;5076725;28;20036;-86
2022/05/27 06:43:59;;;;;;;8.80;6.80;;;;;;;;;;5076163;28;20512;-83
2022/05/27 06:46:26;;;;;;;14.02;6.50;;;;;;;;;;5076111;28;20486;-85
2022/05/27 06:48:54;;;;;;;14.48;6.43;;;;;;;;;;5076014;28;20040;-82
2022/05/27 06:51:21;;;;;;;10.30;6.90;;;;;;;;;;5076100;28;20150;-84
2022/05/27 06:53:49;;;;;;;8.77;6.72;;;;;;;;;;5076051;28;20119;-83
2022/05/27 06:56:16;;;;;;;8.88;6.90;;;;;;;;;;5076010;28;20049;-82
2022/05/27 06:58:44;;;;;;;8.82;6.55;;;;;;;;;;5078353;28;20035;-83
2022/05/27 07:01:12;;;;;;;8.18;6.50;;;;;;;;;;5087338;28;20335;-83
2022/05/27 07:03:40;;;;;;;8.57;6.20;;;;;;;;;;5096025;28;20044;-85
2022/05/27 07:06:09;;;;;;;8.15;6.40;;;;;;;;;;5095746;28;20036;-83
2022/05/27 07:08:37;;;;;;;10.90;6.72;;;;;;;;;;5096576;28;20048;-83
2022/05/27 07:11:05;;;;;;;8.98;6.25;;;;;;;;;;5077826;28;20036;-80
2022/05/27 07:13:33;;;;;;;10.18;6.75;;;;;;;;;;5095854;28;20050;-81
2022/05/27 07:16:00;;;;;;;9.23;7.43;;;;;;;;;;5088250;28;20033;-75
2022/05/27 07:18:28;;;;;;;9.10;6.60;;;;;;;;;;5091195;28;20040;-76
2022/05/27 07:20:59;;;;;;;10.68;6.93;;;;;;;;;;5095584;28;20044;-77
2022/05/27 07:23:27;;;;;;;10.77;6.97;;;;;;;;;;5095618;28;20431;-76
2022/05/27 07:25:54;;;;;;;8.27;6.38;;;;;;;;;;5095555;28;20047;-77
2022/05/27 07:28:22;;;;;;;7.85;6.95;;;;;;;;;;5077461;28;20067;-76
2022/05/27 07:30:49;;;;;;;9.25;6.40;;;;;;;;;;5095403;28;20044;-75
2022/05/27 07:33:17;;;;;;;10.43;7.32;;;;;;;;;;5095011;28;20052;-78
2022/05/27 07:35:45;;;;;;;12.18;6.75;;;;;;;;;;5095301;28;20039;-75
2022/05/27 07:38:12;;;;;;;8.07;6.10;;;;;;;;;;5095505;28;20036;-67
2022/05/27 07:40:40;;;;;;;7.57;6.15;;;;;;;;;;5092333;28;20489;-83
2022/05/27 07:43:08;;;;;;;9.02;5.32;;;;;;;;;;5073822;28;20045;-83
2022/05/27 07:45:37;;;;;;;8.00;6.32;;;;;;;;;;5074960;28;20041;-79
2022/05/27 07:48:05;;;;;;;7.07;5.63;;;;;;;;;;5074707;28;20072;-80
2022/05/27 07:50:33;;;;;;;8.35;5.35;;;;;;;;;;5074887;28;20044;-83
2022/05/27 07:53:00;;;;;;;6.05;5.28;;;;;;;;;;5075033;28;20040;-79
2022/05/27 07:55:28;;;;;;;6.75;5.43;;;;;;;;;;5075116;28;20048;-76
2022/05/27 07:57:56;;;;;;;7.35;5.22;;;;;;;;;;5074841;28;20048;-86
2022/05/27 08:00:25;;;;;;;7.53;5.60;;;;;;;;;;5074610;28;20049;-81
2022/05/27 08:02:52;;;;;;;5.25;4.30;;;;;;;;;;5074517;28;20044;-81
2022/05/27 08:05:21;;;;;;;7.00;3.70;;;;;;;;;;5074720;28;20051;-81
2022/05/27 08:07:49;;;;;;;6.88;3.97;;;;;;;;;;5074613;28;20504;-81
2022/05/27 08:10:19;;;;;;;5.32;3.30;;;;;;;;;;5074563;28;20044;-82
2022/05/27 08:12:47;;;;;;;3.72;3.00;;;;;;;;;;5074467;28;20098;-80
2022/05/27 08:15:15;;;;;;;4.13;3.45;;;;;;;;;;5056441;28;20619;-80
2022/05/27 08:17:43;;;;;;;3.45;3.03;;;;;;;;;;5074271;28;20517;-80
2022/05/27 08:20:12;;;;;;;5.13;3.13;;;;;;;;;;5074416;28;20063;-80
2022/05/27 08:22:40;;;;;;;3.05;2.10;;;;;;;;;;5074452;28;20045;-77
2022/05/27 08:25:08;;;;;;;7.72;2.88;;;;;;;;;;5074391;28;20094;-80
2022/05/27 08:27:36;;;;;;;3.90;2.60;;;;;;;;;;5074254;28;20446;-79
2022/05/27 08:30:04;;;;;;;5.70;3.00;;;;;;;;;;5074167;28;20045;-86
2022/05/27 08:32:32;;;;;;;5.85;2.67;;;;;;;;;;5074048;28;20056;-80
2022/05/27 08:38:01;;;;;;;3.47;2.13;;;;;;;;;;5056064;28;20048;-80
2022/05/27 08:40:39;;;;;;;5.50;2.60;;;;;;;;;;5073908;28;20109;-82
2022/05/27 08:43:16;;;;;;;3.80;2.05;;;;;;;;;;5074080;28;20045;-82
2022/05/27 08:45:55;;;;;;;2.47;2.20;;;;;;;;;;5073769;28;20052;-81
2022/05/27 08:48:25;;;;;;;4.35;2.53;;;;;;;;;;5073721;28;20108;-81
2022/05/27 08:50:55;;;;;;;2.58;2.00;;;;;;;;;;5073884;28;20110;-82
2022/05/27 08:53:31;;;;;;;5.45;2.10;;;;;;;;;;5056117;28;20044;-82
2022/05/27 09:01:45;;;;;;;5.77;1.93;;;;;;;;;;5073546;28;20375;-81
2022/05/27 09:04:19;;;;;;;3.97;1.90;;;;;;;;;;5073323;28;20079;-80
2022/05/27 09:06:50;;;;;;;4.07;1.95;;;;;;;;;;5073473;28;20087;-80
2022/05/27 09:09:25;;;;;;;4.57;2.42;;;;;;;;;;5073409;28;20107;-80
2022/05/27 09:12:10;;;;;;;5.30;2.00;;;;;;;;;;5055467;28;20048;-79
2022/05/27 09:14:37;;;;;;;;;;;;;;;;;;5073881;28;20199;-78
2022/05/27 09:17:06;;;;;;;3.20;1.60;;;;;;;;;;5073588;28;19924;-80
2022/05/27 09:19:51;;;;;;;4.68;2.15;;;;;;;;;;5073275;28;20040;-82
2022/05/27 09:22:22;;;;;;;6.38;1.73;;;;;;;;;;5073378;28;20123;-80
2022/05/27 09:24:54;;;;;;;3.72;1.50;;;;;;;;;;5072995;28;20123;-79
2022/05/27 09:27:24;;;;;;;3.95;1.73;;;;;;;;;;5073080;28;20068;-81
2022/05/27 09:29:55;;;;;;;2.25;1.52;;;;;;;;;;5073300;28;20051;-82
2022/05/27 09:32:41;;;;;;;2.33;1.70;;;;;;;;;;5072848;28;20087;-85
2022/05/27 09:35:11;;;;;;;3.13;1.55;;;;;;;;;;5073408;28;20047;-83
2022/05/27 09:38:01;;;;;;;2.38;1.80;;;;;;;;;;5072997;28;20135;-86
2022/05/27 09:40:48;;;;;;;3.88;1.95;;;;;;;;;;5073582;28;20126;-85
2022/05/27 09:43:21;;;;;;;4.45;2.40;;;;;;;;;;5073494;28;20043;-84
2022/05/27 09:45:55;;;;;;;3.20;2.28;;;;;;;;;;5072848;28;20124;-85
2022/05/27 09:48:23;;;;;;;3.45;2.00;;;;;;;;;;5055532;28;20470;-88
2022/05/27 09:50:50;;;;;;;4.55;2.85;;;;;;;;;;5073315;28;20052;-88
2022/05/27 09:53:20;;;;;;;4.25;3.08;;;;;;;;;;5073137;28;20537;-85
2022/05/27 09:55:48;;;;;;;4.05;2.28;;;;;;;;;;5074795;28;20040;-81
2022/05/27 09:58:22;;;;;;;2.05;1.75;;;;;;;;;;5073089;28;20040;-83
2022/05/27 10:00:50;;;;;;;2.40;2.20;;;;;;;;;;5073601;28;20101;-84
2022/05/27 10:03:30;;;;;;;5.40;3.63;;;;;;;;;;5056187;28;20490;-85
2022/05/27 10:06:00;;;;;;;2.67;1.95;;;;;;;;;;5072071;28;20129;-84
2022/05/27 10:08:32;;;;;;;5.97;1.95;;;;;;;;;;5072613;28;20489;-83
2022/05/27 10:11:07;;;;;;;4.15;3.00;;;;;;;;;;5072669;28;20049;-85
2022/05/27 10:13:35;;;;;;;5.45;2.50;;;;;;;;;;5075428;28;20490;-82
2022/05/27 10:16:08;;;;;;;2.72;2.20;;;;;;;;;;5075232;28;20045;-82
2022/05/27 10:18:35;;;;;;;3.08;1.98;;;;;;;;;;5072452;28;20119;-81
2022/05/27 10:21:03;;;;;;;3.95;2.20;;;;;;;;;;5072721;28;20087;-84
2022/05/27 10:23:35;;;;;;;4.00;2.55;;;;;;;;;;5072486;28;20041;-83
2022/05/27 10:26:20;;;;;;;4.60;2.28;;;;;;;;;;5072490;28;20119;-83
2022/05/27 10:28:59;;;;;;;4.35;2.75;;;;;;;;;;5072474;28;20036;-84
2022/05/27 10:31:27;;;;;;;2.15;1.80;;;;;;;;;;5073780;28;20555;-81
2022/05/27 10:33:55;;;;;;;7.93;2.95;;;;;;;;;;5071840;28;20048;-84
2022/05/27 10:36:22;;;;;;;6.20;2.90;;;;;;;;;;5072008;28;20094;-83
2022/05/27 10:38:54;;;;;;;4.65;2.38;;;;;;;;;;5054323;28;20140;-82
2022/05/27 10:41:22;;;;;;;3.42;2.00;;;;;;;;;;5054138;28;20554;-83
2022/05/27 10:44:10;;;;;;;3.35;2.28;;;;;;;;;;5072217;28;20450;-81
2022/05/27 10:46:53;;;;;;;5.40;2.92;;;;;;;;;;5072130;28;20044;-82
2022/05/27 10:49:30;;;;;;;5.80;1.90;;;;;;;;;;5072235;28;20037;-83
2022/05/27 10:52:17;;;;;;;4.65;1.90;;;;;;;;;;5071950;28;20452;-83
2022/05/27 10:55:03;;;;;;;3.67;2.10;;;;;;;;;;5071995;28;20381;-83
2022/05/27 11:03:29;;;;;;;4.93;2.65;;;;;;;;;;5072276;28;20068;-85
2022/05/27 11:05:57;;;;;;;5.30;3.13;;;;;;;;;;5071882;28;20070;-83
2022/05/27 11:08:26;;;;;;;5.15;3.17;;;;;;;;;;5073597;28;20037;-86
2022/05/27 11:10:56;;;;;;;6.80;5.20;;;;;;;;;;5073302;28;20044;-86
2022/05/27 11:16:51;;;;;;;6.13;1.77;;;;;;;;;;5072369;28;20036;-85
2022/05/27 11:19:38;;;;;;;4.20;2.58;;;;;;;;;;5075748;28;20071;-85
2022/05/27 11:22:14;;;;;;;3.33;2.00;;;;;;;;;;5075463;28;20064;-84
2022/05/27 11:25:00;;;;;;;4.78;3.05;;;;;;;;;;5075228;28;20052;-84
2022/05/27 11:27:37;;;;;;;4.70;3.28;;;;;;;;;;5075473;28;20454;-80
2022/05/27 11:30:09;;;;;;;3.65;2.47;;;;;;;;;;5057356;28;20087;-84
2022/05/27 11:32:55;;;;;;;4.43;2.35;;;;;;;;;;5075010;28;20494;-85
2022/05/27 11:35:36;;;;;;;5.20;2.60;;;;;;;;;;5075012;28;20045;-84
2022/05/27 11:38:22;;;;;;;3.65;3.20;;;;;;;;;;5057076;28;20125;-86
2022/05/27 11:40:59;;;;;;;4.28;2.55;;;;;;;;;;5074983;28;20435;-84
2022/05/27 11:43:41;;;;;;;4.30;2.17;;;;;;;;;;5075005;28;20478;-85
2022/05/27 11:46:08;;;;;;;3.15;1.90;;;;;;;;;;5075462;28;20052;-82
2022/05/27 11:48:36;;;;;;;3.97;1.73;;;;;;;;;;5075068;28;20048;-84
2022/05/27 11:51:22;;;;;;;3.65;2.50;;;;;;;;;;5057066;28;20401;-82
2022/05/27 11:53:59;;;;;;;2.95;2.03;;;;;;;;;;5075161;28;20124;-85
2022/05/27 11:56:26;;;;;;;6.00;2.55;;;;;;;;;;5074984;28;20054;-84
2022/05/27 11:58:54;;;;;;;3.35;2.10;;;;;;;;;;5074929;28;20432;-85
2022/05/27 12:01:31;;;;;;;2.63;2.20;;;;;;;;;;5074999;28;20040;-85
2022/05/27 12:04:22;;;;;;;4.35;1.98;;;;;;;;;;5075384;28;20091;-86
2022/05/27 12:06:53;;;;;;;4.28;2.08;;;;;;;;;;5046648;28;20086;-83
2022/05/27 12:09:32;;;;;;;2.92;1.90;;;;;;;;;;5074749;28;20040;-82
2022/05/27 12:12:06;;;;;;;6.18;2.28;;;;;;;;;;5074604;28;20440;-84
2022/05/27 12:14:40;;;;;;;3.63;2.28;;;;;;;;;;5074626;28;20079;-83
2022/05/27 12:17:20;;;;;;;2.50;2.05;;;;;;;;;;5074547;28;20044;-85
2022/05/27 12:19:56;;;;;;;2.50;2.08;;;;;;;;;;5056920;28;20094;-85
2022/05/27 12:22:31;;;;;;;2.50;2.25;;;;;;;;;;5074280;28;20478;-84
2022/05/27 12:25:01;;;;;;;4.80;2.42;;;;;;;;;;5074324;28;20569;-84
2022/05/27 12:27:29;;;;;;;3.95;2.30;;;;;;;;;;5074313;28;20056;-84
2022/05/27 12:29:58;;;;;;;5.07;2.50;;;;;;;;;;5073528;28;20071;-84
2022/05/27 12:32:26;;;;;;;4.00;2.20;;;;;;;;;;5074245;28;20053;-83
2022/05/27 12:35:14;;;;;;;3.17;1.80;;;;;;;;;;5056267;28;20044;-81
2022/05/27 12:37:47;;;;;;;4.43;2.55;;;;;;;;;;5074085;28;20429;-81
2022/05/27 12:40:17;;;;;;;9.27;3.42;;;;;;;;;;5074103;28;20063;-82
2022/05/27 12:42:45;;;;;;;5.70;2.53;;;;;;;;;;5073947;28;20486;-82
2022/05/27 12:45:20;;;;;;;5.85;2.95;;;;;;;;;;5073940;28;20075;-81
2022/05/27 12:47:51;;;;;;;3.10;1.98;;;;;;;;;;5073862;28;20074;-83
2022/05/27 12:50:26;;;;;;;3.72;2.15;;;;;;;;;;5073978;28;20548;-82
2022/05/27 12:52:55;;;;;;;4.00;2.10;;;;;;;;;;5073727;28;20162;-81
2022/05/27 13:00:55;;;;;;;2.03;1.83;;;;;;;;;;5073620;28;20078;-81
2022/05/27 13:01:22;;;;;;;3.22;1.95;;;;;;;;;;5073898;28;20119;-81
2022/05/27 13:03:51;;;;;;;4.57;2.35;;;;;;;;;;5056292;28;20094;-81
2022/05/27 13:06:25;;;;;;;3.58;1.92;;;;;;;;;;5056380;28;20049;-80
2022/05/27 13:09:00;;;;;;;5.00;3.40;;;;;;;;;;5073578;28;20402;-80
2022/05/27 13:11:34;;;;;;;4.45;2.50;;;;;;;;;;5055668;28;20509;-80
2022/05/27 13:14:04;;;;;;;2.85;1.95;;;;;;;;;;5073489;28;20039;-80
2022/05/27 13:16:52;;;;;;;2.90;2.15;;;;;;;;;;5073395;28;20051;-80
2022/05/27 13:19:24;;;;;;;3.60;2.00;;;;;;;;;;5073278;28;20036;-82
2022/05/27 13:21:51;;;;;;;7.13;3.22;;;;;;;;;;5073431;28;20045;-81
2022/05/27 13:24:19;;;;;;;4.78;3.13;;;;;;;;;;5073562;28;20055;-81
2022/05/27 13:26:46;;;;;;;4.88;2.45;;;;;;;;;;5073422;28;20465;-79
2022/05/27 13:29:16;;;;;;;2.90;2.00;;;;;;;;;;5073502;28;20086;-80
2022/05/27 13:31:44;;;;;;;2.53;2.03;;;;;;;;;;5055413;28;20067;-81
2022/05/27 13:34:18;;;;;;;8.00;3.55;;;;;;;;;;5073085;28;20114;-80
2022/05/27 13:37:00;;;;;;;6.32;3.20;;;;;;;;;;5073492;28;20107;-79
2022/05/27 13:39:40;;;;;;;4.57;2.00;;;;;;;;;;5073284;28;20067;-80
2022/05/27 13:42:10;;;;;;;3.53;2.05;;;;;;;;;;5054408;28;20047;-81
2022/05/27 13:44:41;;;;;;;4.70;2.03;;;;;;;;;;5073024;28;20071;-79
2022/05/27 13:47:13;;;;;;;4.85;2.15;;;;;;;;;;5072884;28;20048;-80
2022/05/27 13:49:42;;;;;;;5.45;2.47;;;;;;;;;;5073003;28;20049;-80
2022/05/27 13:52:20;;;;;;;5.35;2.45;;;;;;;;;;5072773;28;20042;-80
2022/05/27 13:54:59;;;;;;;6.55;3.83;;;;;;;;;;5072839;28;20043;-78
2022/05/27 13:57:28;;;;;;;4.28;2.85;;;;;;;;;;5072829;28;20071;-80
2022/05/27 13:59:57;;;;;;;5.97;2.97;;;;;;;;;;5072801;28;20687;-80
2022/05/27 14:02:25;;;;;;;4.28;1.98;;;;;;;;;;5072774;28;20094;-79
2022/05/27 14:04:57;;;;;;;3.22;2.20;;;;;;;;;;5072553;28;20075;-81
2022/05/27 14:07:30;;;;;;;5.32;3.22;;;;;;;;;;5072573;28;20066;-80
2022/05/27 14:09:59;;;;;;;3.65;2.40;;;;;;;;;;5088502;28;20082;-68
2022/05/27 14:12:32;;;;;;;4.60;2.10;;;;;;;;;;5092778;28;20036;-85
2022/05/27 14:15:02;;;;;;;3.15;2.13;;;;;;;;;;5096933;28;20125;-87
2022/05/27 14:17:36;;;;;;;2.53;1.75;;;;;;;;;;5092860;28;20048;-86
2022/05/27 14:20:06;;;;;;;6.28;2.72;;;;;;;;;;5092521;28;20067;-67
2022/05/27 14:22:44;;;;;;;5.72;3.65;;;;;;;;;;5092559;28;20044;-63
2022/05/27 14:25:15;;;;;;;4.93;3.42;;;;;;;;;;5091783;28;20440;-70
2022/05/27 14:28:03;;;;;;;5.60;2.60;;;;;;;;;;5092278;28;20080;-69
2022/05/27 14:30:35;;;;;;;5.60;2.47;;;;;;;;;;5073026;28;20050;-76
2022/05/27 14:33:06;;;;;;;7.78;6.35;;;;;;;;;;5091424;28;20493;-68
2022/05/27 14:35:34;;;;;;;5.57;2.20;;;;;;;;;;5091863;28;20036;-70
2022/05/27 14:38:04;;;;;;;5.97;3.53;;;;;;;;;;5092085;28;20436;-70
2022/05/27 14:40:45;;;;;;;8.40;2.58;;;;;;;;;;5092010;28;20390;-70
2022/05/27 14:43:36;;;;;;;4.05;2.05;;;;;;;;;;5090348;28;20070;-70
2022/05/27 14:46:16;;;;;;;6.32;3.40;;;;;;;;;;5083613;28;20082;-68
2022/05/27 14:48:45;;;;;;;14.95;3.85;;;;;;;;;;5090535;28;20036;-69
2022/05/27 14:51:32;;;;;;;7.28;2.85;;;;;;;;;;5091801;28;20040;-70
2022/05/27 14:54:18;;;;;;;10.88;3.30;;;;;;;;;;5076418;28;20131;-69
2022/05/27 14:56:46;;;;;;;8.55;6.10;;;;;;;;;;5095848;28;20036;-69
2022/05/27 14:59:25;;;;;;;5.80;2.70;;;;;;;;;;5095803;28;20036;-68
2022/05/27 15:01:54;;;;;;;5.38;2.70;;;;;;;;;;5095810;28;20098;-69
2022/05/27 15:04:27;;;;;;;11.10;2.78;;;;;;;;;;5095711;28;20123;-68
2022/05/27 15:06:57;;;;;;;6.80;2.70;;;;;;;;;;5095565;28;20055;-71
2022/05/27 15:09:35;;;;;;;5.53;2.90;;;;;;;;;;5095701;28;20036;-67
2022/05/27 15:12:14;;;;;;;5.53;3.08;;;;;;;;;;5095582;28;20443;-69
2022/05/27 15:14:43;;;;;;;7.10;2.97;;;;;;;;;;5095641;28;20032;-62
2022/05/27 15:17:20;;;;;;;4.40;2.70;;;;;;;;;;5095665;28;20093;-64
2022/05/27 15:19:49;;;;;;;12.52;2.90;;;;;;;;;;5095314;28;20135;-65
2022/05/27 15:22:18;;;;;;;5.10;2.38;;;;;;;;;;5095323;28;20037;-66
2022/05/27 15:24:52;;;;;;;3.15;2.60;;;;;;;;;;5095438;28;20119;-66
2022/05/27 15:33:07;;;;;;;4.40;3.10;;;;;;;;;;5095193;28;20097;-67
2022/05/27 15:35:47;;;;;;;10.00;3.00;;;;;;;;;;5095303;28;20046;-67
2022/05/27 15:38:15;;;;;;;7.05;2.90;;;;;;;;;;5095211;28;20044;-67
2022/05/27 15:40:44;;;;;;;4.35;3.20;;;;;;;;;;5095014;28;20032;-67
2022/05/27 15:43:13;;;;;;;5.43;2.90;;;;;;;;;;5095055;28;20094;-67
2022/05/27 15:45:41;;;;;;;3.72;2.55;;;;;;;;;;5095072;28;20046;-67